createdAt,value
2023-04-18T00:00:34.438Z,8.10
2023-04-18T00:01:33.451Z,8.08
2023-04-18T00:02:33.595Z,8.09
2023-04-18T00:03:33.615Z,8.09
2023-04-18T00:04:33.464Z,8.06
2023-04-18T00:05:33.429Z,8.09
2023-04-18T00:06:34.325Z,8.08
2023-04-18T00:07:33.435Z,8.05
2023-04-18T00:08:33.383Z,8.05
2023-04-18T00:09:33.395Z,8.03
2023-04-18T00:10:33.367Z,8.00
2023-04-18T00:11:33.330Z,8.01
2023-04-18T00:12:34.328Z,8.05
2023-04-18T00:13:33.328Z,8.08
2023-04-18T00:14:33.284Z,8.09
2023-04-18T00:15:33.270Z,8.10
2023-04-18T00:16:33.449Z,8.10
2023-04-18T00:17:33.281Z,8.06
2023-04-18T00:18:34.191Z,8.01
2023-04-18T00:19:33.229Z,7.98
2023-04-18T00:20:33.211Z,7.98
2023-04-18T00:21:33.235Z,8.01
2023-04-18T00:22:33.193Z,8.03
2023-04-18T00:23:34.101Z,8.03
2023-04-18T00:24:33.196Z,8.01
2023-04-18T00:25:33.202Z,8.01
2023-04-18T00:26:33.196Z,8.01
2023-04-18T00:27:33.148Z,8.00
2023-04-18T00:28:33.146Z,7.95
2023-04-18T00:29:34.054Z,7.97
2023-04-18T00:30:33.145Z,7.98
2023-04-18T00:31:33.098Z,7.98
2023-04-18T00:32:33.116Z,7.98
2023-04-18T00:33:33.133Z,7.98
2023-04-18T00:34:33.064Z,7.98
2023-04-18T00:35:33.990Z,7.95
2023-04-18T00:36:33.027Z,7.93
2023-04-18T00:37:33.083Z,7.93
2023-04-18T00:38:33.007Z,7.91
2023-04-18T00:39:33.011Z,7.90
2023-04-18T00:40:32.974Z,7.90
2023-04-18T00:41:33.900Z,7.88
2023-04-18T00:42:32.953Z,7.83
2023-04-18T00:43:33.032Z,7.85
2023-04-18T00:44:32.925Z,7.82
2023-04-18T00:45:32.908Z,7.83
2023-04-18T00:46:54.847Z,7.85
2023-04-18T00:47:33.052Z,7.80
2023-04-18T00:48:32.895Z,7.80
2023-04-18T00:49:32.846Z,7.75
2023-04-18T00:50:32.854Z,7.75
2023-04-18T00:51:32.833Z,7.76
2023-04-18T00:52:33.778Z,7.76
2023-04-18T00:53:32.794Z,7.77
2023-04-18T00:54:32.801Z,7.79
2023-04-18T00:55:32.802Z,7.80
2023-04-18T00:56:32.797Z,7.79
2023-04-18T00:57:33.673Z,7.75
2023-04-18T00:58:32.767Z,7.75
2023-04-18T00:59:32.737Z,7.72
2023-04-18T01:00:32.718Z,7.73
2023-04-18T01:01:32.794Z,7.75
2023-04-18T01:02:33.724Z,7.75
2023-04-18T01:03:32.781Z,7.79
2023-04-18T01:04:32.834Z,7.82
2023-04-18T01:05:32.679Z,7.79
2023-04-18T01:06:32.679Z,7.79
2023-04-18T01:07:32.640Z,7.83
2023-04-18T01:08:33.555Z,7.82
2023-04-18T01:09:32.656Z,7.80
2023-04-18T01:10:32.622Z,7.83
2023-04-18T01:11:32.653Z,7.79
2023-04-18T01:12:32.570Z,7.77
2023-04-18T01:13:32.550Z,7.76
2023-04-18T01:14:33.463Z,7.76
2023-04-18T01:15:32.591Z,7.75
2023-04-18T01:16:32.545Z,7.75
2023-04-18T01:17:33.500Z,7.73
2023-04-18T01:18:32.514Z,7.70
2023-04-18T01:19:33.422Z,7.72
2023-04-18T01:20:32.477Z,7.75
2023-04-18T01:21:32.514Z,7.77
2023-04-18T01:22:32.444Z,7.79
2023-04-18T01:23:32.440Z,7.75
2023-04-18T01:24:33.348Z,7.75
2023-04-18T01:25:33.379Z,7.75
2023-04-18T01:26:32.388Z,7.75
2023-04-18T01:27:32.393Z,7.73
2023-04-18T01:28:32.356Z,7.77
2023-04-18T01:29:32.344Z,7.77
2023-04-18T01:30:33.272Z,7.77
2023-04-18T01:32:29.844Z,7.79
2023-04-18T01:33:29.784Z,7.79
2023-04-18T01:34:29.817Z,7.77
2023-04-18T01:35:29.758Z,7.79
2023-04-18T01:36:31.646Z,7.79
2023-04-18T01:37:29.725Z,7.75
2023-04-18T01:38:29.767Z,7.72
2023-04-18T01:39:29.700Z,7.72
2023-04-18T01:40:29.698Z,7.72
2023-04-18T01:41:31.593Z,7.75
2023-04-18T01:42:29.709Z,7.76
2023-04-18T01:43:29.707Z,7.77
2023-04-18T01:44:29.665Z,7.77
2023-04-18T01:45:29.760Z,7.76
2023-04-18T01:46:30.636Z,7.73
2023-04-18T01:47:30.630Z,7.70
2023-04-18T01:48:29.644Z,7.69
2023-04-18T01:49:29.642Z,7.69
2023-04-18T01:50:30.763Z,7.69
2023-04-18T01:51:29.603Z,7.67
2023-04-18T01:52:29.571Z,7.69
2023-04-18T01:53:30.506Z,7.70
2023-04-18T01:54:29.741Z,7.70
2023-04-18T01:55:29.525Z,7.70
2023-04-18T01:56:29.512Z,7.69
2023-04-18T01:57:29.517Z,7.72
2023-04-18T01:58:29.648Z,7.72
2023-04-18T01:59:31.357Z,7.75
2023-04-18T02:00:29.510Z,7.72
2023-04-18T02:01:30.424Z,7.70
2023-04-18T02:02:29.741Z,7.70
2023-04-18T02:03:29.528Z,7.69
2023-04-18T02:04:29.426Z,7.72
2023-04-18T02:05:30.331Z,7.69
2023-04-18T02:06:29.407Z,7.69
2023-04-18T02:07:30.322Z,7.69
2023-04-18T02:08:29.395Z,7.66
2023-04-18T02:09:29.366Z,7.66
2023-04-18T02:10:29.326Z,7.66
2023-04-18T02:11:30.276Z,7.66
2023-04-18T02:12:29.303Z,7.66
2023-04-18T02:13:30.233Z,7.67
2023-04-18T02:14:29.294Z,7.72
2023-04-18T02:15:30.290Z,7.72
2023-04-18T02:16:30.260Z,7.73
2023-04-18T02:17:30.237Z,7.70
2023-04-18T02:18:30.198Z,7.72
2023-04-18T02:19:29.218Z,7.69
2023-04-18T02:20:30.163Z,7.67
2023-04-18T02:21:30.193Z,7.67
2023-04-18T02:22:30.231Z,7.67
2023-04-18T02:23:30.110Z,7.67
2023-04-18T02:24:30.499Z,7.66
2023-04-18T02:25:30.104Z,7.69
2023-04-18T02:26:30.166Z,7.72
2023-04-18T02:27:30.326Z,7.72
2023-04-18T02:28:29.130Z,7.72
2023-04-18T02:29:29.101Z,7.72
2023-04-18T02:30:30.034Z,7.70
2023-04-18T02:31:29.107Z,7.72
2023-04-18T02:32:30.061Z,7.69
2023-04-18T02:33:29.060Z,7.63
2023-04-18T02:34:29.265Z,7.63
2023-04-18T02:35:29.995Z,7.61
2023-04-18T02:36:29.069Z,7.56
2023-04-18T02:37:29.956Z,7.53
2023-04-18T02:38:29.924Z,7.51
2023-04-18T02:39:29.979Z,7.50
2023-04-18T02:40:28.975Z,7.51
2023-04-18T02:41:29.903Z,7.54
2023-04-18T02:42:28.912Z,7.54
2023-04-18T02:43:30.839Z,7.57
2023-04-18T02:44:28.900Z,7.57
2023-04-18T02:45:28.888Z,7.56
2023-04-18T02:46:28.901Z,7.56
2023-04-18T02:47:31.725Z,7.54
2023-04-18T02:48:30.378Z,7.56
2023-04-18T02:49:30.708Z,7.58
2023-04-18T02:50:29.798Z,7.56
2023-04-18T02:51:28.791Z,7.56
2023-04-18T02:52:28.784Z,7.56
2023-04-18T02:53:28.809Z,7.56
2023-04-18T02:54:30.026Z,7.60
2023-04-18T02:55:29.728Z,7.58
2023-04-18T02:56:28.732Z,7.60
2023-04-18T02:57:28.749Z,7.57
2023-04-18T02:58:28.770Z,7.58
2023-04-18T02:59:29.648Z,7.60
2023-04-18T03:00:29.660Z,7.58
2023-04-18T03:01:29.695Z,7.61
2023-04-18T03:02:28.799Z,7.61
2023-04-18T03:03:29.606Z,7.60
2023-04-18T03:04:29.624Z,7.58
2023-04-18T03:05:29.560Z,7.57
2023-04-18T03:06:28.593Z,7.56
2023-04-18T03:07:28.600Z,7.54
2023-04-18T03:08:29.569Z,7.58
2023-04-18T03:09:28.582Z,7.56
2023-04-18T03:10:28.589Z,7.54
2023-04-18T03:11:29.569Z,7.56
2023-04-18T03:12:29.505Z,7.57
2023-04-18T03:13:29.465Z,7.57
2023-04-18T03:14:28.652Z,7.57
2023-04-18T03:15:29.447Z,7.56
2023-04-18T03:16:29.554Z,7.58
2023-04-18T03:17:29.486Z,7.57
2023-04-18T03:18:29.469Z,7.56
2023-04-18T03:19:29.422Z,7.56
2023-04-18T03:20:29.417Z,7.54
2023-04-18T03:21:29.360Z,7.54
2023-04-18T03:22:28.669Z,7.57
2023-04-18T03:23:29.393Z,7.58
2023-04-18T03:24:28.520Z,7.57
2023-04-18T03:25:29.419Z,7.57
2023-04-18T03:26:28.419Z,7.57
2023-04-18T03:27:29.296Z,7.57
2023-04-18T03:28:28.387Z,7.56
2023-04-18T03:29:28.330Z,7.51
2023-04-18T03:30:28.325Z,7.50
2023-04-18T03:31:28.378Z,7.48
2023-04-18T03:32:29.248Z,7.51
2023-04-18T03:33:29.266Z,7.51
2023-04-18T03:34:28.306Z,7.53
2023-04-18T03:35:29.369Z,7.51
2023-04-18T03:36:28.282Z,7.51
2023-04-18T03:37:28.281Z,7.50
2023-04-18T03:38:29.182Z,7.54
2023-04-18T03:39:29.181Z,7.56
2023-04-18T03:40:28.288Z,7.56
2023-04-18T03:41:28.221Z,7.58
2023-04-18T03:42:28.196Z,7.58
2023-04-18T03:43:30.032Z,7.56
2023-04-18T03:44:28.139Z,7.57
2023-04-18T03:45:28.125Z,7.56
2023-04-18T03:46:29.153Z,7.51
2023-04-18T03:47:28.147Z,7.47
2023-04-18T03:48:28.117Z,7.45
2023-04-18T03:49:29.050Z,7.42
2023-04-18T03:50:29.043Z,7.40
2023-04-18T03:51:28.030Z,7.42
2023-04-18T03:52:29.845Z,7.42
2023-04-18T03:53:28.219Z,7.39
2023-04-18T03:54:29.057Z,7.40
2023-04-18T03:55:29.051Z,7.43
2023-04-18T03:56:27.996Z,7.43
2023-04-18T03:57:27.992Z,7.47
2023-04-18T03:58:28.332Z,7.50
2023-04-18T03:59:28.071Z,7.51
2023-04-18T04:00:29.815Z,7.54
2023-04-18T04:01:27.952Z,7.60
2023-04-18T04:02:27.995Z,7.61
2023-04-18T04:03:28.996Z,7.61
2023-04-18T04:04:28.057Z,7.63
2023-04-18T04:05:29.802Z,7.61
2023-04-18T04:06:27.869Z,7.60
2023-04-18T04:07:27.897Z,7.60
2023-04-18T04:08:28.312Z,7.60
2023-04-18T04:09:27.883Z,7.60
2023-04-18T04:10:28.846Z,7.63
2023-04-18T04:11:29.706Z,7.61
2023-04-18T04:12:27.779Z,7.57
2023-04-18T04:13:28.834Z,7.50
2023-04-18T04:14:27.843Z,7.47
2023-04-18T04:15:28.739Z,7.50
2023-04-18T04:16:27.870Z,7.51
2023-04-18T04:17:28.788Z,7.53
2023-04-18T04:18:27.717Z,7.53
2023-04-18T04:19:27.903Z,7.56
2023-04-18T04:20:28.668Z,7.56
2023-04-18T04:21:27.688Z,7.54
2023-04-18T04:22:28.661Z,7.51
2023-04-18T04:23:28.594Z,7.47
2023-04-18T04:24:27.674Z,7.47
2023-04-18T04:25:28.565Z,7.48
2023-04-18T04:26:27.637Z,7.48
2023-04-18T04:27:28.534Z,7.50
2023-04-18T04:28:27.728Z,7.57
2023-04-18T04:29:28.508Z,7.57
2023-04-18T04:30:27.588Z,7.57
2023-04-18T04:31:27.797Z,7.61
2023-04-18T04:32:28.476Z,7.63
2023-04-18T04:33:27.531Z,7.60
2023-04-18T04:34:27.547Z,7.56
2023-04-18T04:35:27.509Z,7.56
2023-04-18T04:36:27.497Z,7.57
2023-04-18T04:37:28.454Z,7.58
2023-04-18T04:38:27.609Z,7.60
2023-04-18T04:39:28.434Z,7.61
2023-04-18T04:40:27.450Z,7.67
2023-04-18T04:41:27.412Z,7.67
2023-04-18T04:42:28.353Z,7.70
2023-04-18T04:43:28.408Z,7.73
2023-04-18T04:44:27.396Z,7.76
2023-04-18T04:45:27.444Z,7.77
2023-04-18T04:46:28.390Z,7.79
2023-04-18T04:47:28.335Z,7.77
2023-04-18T04:48:27.360Z,7.79
2023-04-18T04:49:27.485Z,7.80
2023-04-18T04:50:27.342Z,7.82
2023-04-18T04:51:27.297Z,7.79
2023-04-18T04:52:27.794Z,7.80
2023-04-18T04:53:28.292Z,7.77
2023-04-18T04:54:28.191Z,7.76
2023-04-18T04:55:28.271Z,7.73
2023-04-18T04:56:27.260Z,7.70
2023-04-18T04:57:28.177Z,7.69
2023-04-18T04:58:27.213Z,7.69
2023-04-18T04:59:28.168Z,7.67
2023-04-18T05:00:27.190Z,7.66
2023-04-18T05:01:27.337Z,7.66
2023-04-18T05:02:27.241Z,7.60
2023-04-18T05:03:27.297Z,7.57
2023-04-18T05:04:28.260Z,7.60
2023-04-18T05:05:27.149Z,7.57
2023-04-18T05:06:27.119Z,7.54
2023-04-18T05:07:27.117Z,7.51
2023-04-18T05:08:27.099Z,7.56
2023-04-18T05:09:27.282Z,7.54
2023-04-18T05:10:28.109Z,7.56
2023-04-18T05:11:27.747Z,7.54
2023-04-18T05:12:27.089Z,7.51
2023-04-18T05:13:27.022Z,7.51
2023-04-18T05:14:27.097Z,7.51
2023-04-18T05:15:27.068Z,7.53
2023-04-18T05:16:27.960Z,7.53
2023-04-18T05:17:26.995Z,7.51
2023-04-18T05:18:26.966Z,7.54
2023-04-18T05:19:26.948Z,7.51
2023-04-18T05:20:26.950Z,7.50
2023-04-18T05:21:27.877Z,7.48
2023-04-18T05:22:26.894Z,7.50
2023-04-18T05:23:26.942Z,7.48
2023-04-18T05:24:26.930Z,7.48
2023-04-18T05:25:26.915Z,7.48
2023-04-18T05:26:27.821Z,7.48
2023-04-18T05:27:26.853Z,7.51
2023-04-18T05:28:26.872Z,7.54
2023-04-18T05:29:26.905Z,7.54
2023-04-18T05:30:26.810Z,7.48
2023-04-18T05:31:26.857Z,7.45
2023-04-18T05:32:27.705Z,7.47
2023-04-18T05:33:26.753Z,7.47
2023-04-18T05:34:26.790Z,7.45
2023-04-18T05:35:26.786Z,7.43
2023-04-18T05:36:26.738Z,7.42
2023-04-18T05:37:26.762Z,7.42
2023-04-18T05:38:27.634Z,7.43
2023-04-18T05:39:26.707Z,7.45
2023-04-18T05:40:26.705Z,7.48
2023-04-18T05:41:26.674Z,7.51
2023-04-18T05:42:26.640Z,7.54
2023-04-18T05:43:27.593Z,7.58
2023-04-18T05:44:26.654Z,7.60
2023-04-18T05:45:26.625Z,7.66
2023-04-18T05:46:26.719Z,7.72
2023-04-18T05:47:26.705Z,7.73
2023-04-18T05:48:28.480Z,7.76
2023-04-18T05:49:26.569Z,7.79
2023-04-18T05:50:26.560Z,7.79
2023-04-18T05:51:26.610Z,7.80
2023-04-18T05:52:26.674Z,7.82
2023-04-18T05:53:27.467Z,7.82
2023-04-18T05:54:26.493Z,7.82
2023-04-18T05:55:26.475Z,7.83
2023-04-18T05:56:26.559Z,7.83
2023-04-18T05:57:26.462Z,7.85
2023-04-18T05:58:26.471Z,7.82
2023-04-18T05:59:27.364Z,7.83
2023-04-18T06:00:26.460Z,7.87
2023-04-18T06:01:26.449Z,7.85
2023-04-18T06:02:26.572Z,7.87
2023-04-18T06:03:26.569Z,7.83
2023-04-18T06:04:26.505Z,7.83
2023-04-18T06:05:27.873Z,7.85
2023-04-18T06:06:26.352Z,7.88
2023-04-18T06:07:26.349Z,7.88
2023-04-18T06:08:26.310Z,7.90
2023-04-18T06:09:26.326Z,7.87
2023-04-18T06:10:27.246Z,7.88
2023-04-18T06:11:26.306Z,7.87
2023-04-18T06:12:26.273Z,7.88
2023-04-18T06:13:26.306Z,7.90
2023-04-18T06:14:26.227Z,7.93
2023-04-18T06:15:27.260Z,7.94
2023-04-18T06:16:26.319Z,7.95
2023-04-18T06:17:26.452Z,7.97
2023-04-18T06:18:26.228Z,7.98
2023-04-18T06:19:26.256Z,8.05
2023-04-18T06:20:27.120Z,8.09
2023-04-18T06:21:26.241Z,8.13
2023-04-18T06:22:26.177Z,8.13
2023-04-18T06:23:26.136Z,8.13
2023-04-18T06:24:26.136Z,8.19
2023-04-18T06:25:27.168Z,8.20
2023-04-18T06:26:26.179Z,8.24
2023-04-18T06:27:31.208Z,8.26
2023-04-18T06:28:27.599Z,8.33
2023-04-18T06:29:27.073Z,8.38
2023-04-18T06:30:26.197Z,8.45
2023-04-18T06:31:27.076Z,8.44
2023-04-18T06:32:26.165Z,8.49
2023-04-18T06:33:26.040Z,8.53
2023-04-18T06:34:26.036Z,8.56
2023-04-18T06:35:26.740Z,8.60
2023-04-18T06:36:27.014Z,8.63
2023-04-18T06:37:26.037Z,8.64
2023-04-18T06:38:25.992Z,8.64
2023-04-18T06:39:25.939Z,8.61
2023-04-18T06:40:25.939Z,8.64
2023-04-18T06:41:26.867Z,8.70
2023-04-18T06:42:25.951Z,8.73
2023-04-18T06:43:25.913Z,8.78
2023-04-18T06:44:25.939Z,8.84
2023-04-18T06:45:26.323Z,8.81
2023-04-18T06:46:26.005Z,8.84
2023-04-18T06:47:26.815Z,8.85
2023-04-18T06:48:25.871Z,8.87
2023-04-18T06:49:26.723Z,8.91
2023-04-18T06:50:25.897Z,8.95
2023-04-18T06:51:25.886Z,9.00
2023-04-18T06:52:26.795Z,9.04
2023-04-18T06:53:25.778Z,9.10
2023-04-18T06:54:25.904Z,9.13
2023-04-18T06:55:25.741Z,9.14
2023-04-18T06:56:25.758Z,9.14
2023-04-18T06:57:25.734Z,9.13
2023-04-18T06:58:26.663Z,9.13
2023-04-18T06:59:25.713Z,9.13
2023-04-18T07:00:25.761Z,9.14
2023-04-18T07:01:26.707Z,9.16
2023-04-18T07:02:25.718Z,9.18
2023-04-18T07:03:25.711Z,9.21
2023-04-18T07:04:26.797Z,9.22
2023-04-18T07:05:25.703Z,9.22
2023-04-18T07:06:25.620Z,9.23
2023-04-18T07:07:25.637Z,9.26
2023-04-18T07:08:25.611Z,9.28
2023-04-18T07:09:25.569Z,9.28
2023-04-18T07:10:26.607Z,9.31
2023-04-18T07:11:25.547Z,9.36
2023-04-18T07:12:25.559Z,9.39
2023-04-18T07:13:25.570Z,9.41
2023-04-18T07:14:25.499Z,9.46
2023-04-18T07:15:26.516Z,9.50
2023-04-18T07:16:25.594Z,9.55
2023-04-18T07:17:25.510Z,9.59
2023-04-18T07:18:36.800Z,9.62
2023-04-18T07:19:26.990Z,9.65
2023-04-18T07:20:26.387Z,9.72
2023-04-18T07:21:25.443Z,9.77
2023-04-18T07:22:25.465Z,9.80
2023-04-18T07:23:25.589Z,9.86
2023-04-18T07:24:25.377Z,9.92
2023-04-18T07:25:25.381Z,9.94
2023-04-18T07:26:26.259Z,10.02
2023-04-18T07:27:25.332Z,10.12
2023-04-18T07:28:25.389Z,10.15
2023-04-18T07:29:25.324Z,10.19
2023-04-18T07:30:25.331Z,10.10
2023-04-18T07:32:24.194Z,10.09
2023-04-18T07:33:24.165Z,10.04
2023-04-18T07:34:24.164Z,10.07
2023-04-18T07:35:26.826Z,10.10
2023-04-18T07:36:24.165Z,10.13
2023-04-18T07:37:25.050Z,10.13
2023-04-18T07:38:24.096Z,10.15
2023-04-18T07:39:24.122Z,10.17
2023-04-18T07:40:24.068Z,10.25
2023-04-18T07:41:24.057Z,10.31
2023-04-18T07:42:24.988Z,10.38
2023-04-18T07:43:24.011Z,10.41
2023-04-18T07:44:24.034Z,10.44
2023-04-18T07:45:24.077Z,10.48
2023-04-18T07:46:24.006Z,10.53
2023-04-18T07:47:24.995Z,10.59
2023-04-18T07:48:24.002Z,10.68
2023-04-18T07:49:23.955Z,10.68
2023-04-18T07:50:23.935Z,10.71
2023-04-18T07:51:23.941Z,10.78
2023-04-18T07:52:23.923Z,10.81
2023-04-18T07:53:24.906Z,10.86
2023-04-18T07:54:23.930Z,10.93
2023-04-18T07:55:23.881Z,10.99
2023-04-18T07:56:23.856Z,11.04
2023-04-18T07:57:23.878Z,11.08
2023-04-18T07:58:24.807Z,11.10
2023-04-18T07:59:23.857Z,11.08
2023-04-18T08:00:23.801Z,10.99
2023-04-18T08:01:23.789Z,10.93
2023-04-18T08:02:23.883Z,10.86
2023-04-18T08:03:24.817Z,10.84
2023-04-18T08:04:23.872Z,10.87
2023-04-18T08:05:23.817Z,10.94
2023-04-18T08:06:23.756Z,10.90
2023-04-18T08:07:23.724Z,10.86
2023-04-18T08:08:23.730Z,10.86
2023-04-18T08:09:24.623Z,10.87
2023-04-18T08:10:23.871Z,10.87
2023-04-18T08:11:23.659Z,10.84
2023-04-18T08:12:23.751Z,10.82
2023-04-18T08:13:23.630Z,10.81
2023-04-18T08:14:23.622Z,10.81
2023-04-18T08:15:24.546Z,10.79
2023-04-18T08:16:23.634Z,10.78
2023-04-18T08:17:23.671Z,10.75
2023-04-18T08:18:23.627Z,10.74
2023-04-18T08:19:23.570Z,10.76
2023-04-18T08:20:23.585Z,10.78
2023-04-18T08:21:24.476Z,10.79
2023-04-18T08:22:23.525Z,10.86
2023-04-18T08:23:23.564Z,10.90
2023-04-18T08:24:23.488Z,10.96
2023-04-18T08:25:23.504Z,10.99
2023-04-18T08:26:24.468Z,11.00
2023-04-18T08:27:23.449Z,11.07
2023-04-18T08:28:23.489Z,11.10
2023-04-18T08:29:23.429Z,11.12
2023-04-18T08:30:23.425Z,11.14
2023-04-18T08:31:25.004Z,11.15
2023-04-18T08:32:23.928Z,11.14
2023-04-18T08:33:23.428Z,11.12
2023-04-18T08:34:23.379Z,11.14
2023-04-18T08:35:23.374Z,11.17
2023-04-18T08:36:24.301Z,11.19
2023-04-18T08:37:23.337Z,11.18
2023-04-18T08:38:23.345Z,11.12
2023-04-18T08:39:25.183Z,11.10
2023-04-18T08:40:23.321Z,11.04
2023-04-18T08:41:23.319Z,10.97
2023-04-18T08:42:24.196Z,10.96
2023-04-18T08:43:23.276Z,10.94
2023-04-18T08:44:23.263Z,10.92
2023-04-18T08:45:23.239Z,10.90
2023-04-18T08:46:23.334Z,10.92
2023-04-18T08:47:24.237Z,10.87
2023-04-18T08:48:23.263Z,10.87
2023-04-18T08:49:23.212Z,10.89
2023-04-18T08:50:23.212Z,10.87
2023-04-18T08:51:23.184Z,10.84
2023-04-18T08:52:24.103Z,10.86
2023-04-18T08:53:23.192Z,10.86
2023-04-18T08:54:23.849Z,10.84
2023-04-18T08:55:23.126Z,10.86
2023-04-18T08:56:23.155Z,10.87
2023-04-18T08:57:24.042Z,10.92
2023-04-18T08:58:23.068Z,10.94
2023-04-18T08:59:23.082Z,10.94
2023-04-18T09:00:23.046Z,10.96
2023-04-18T09:01:23.116Z,10.99
2023-04-18T09:02:24.054Z,11.04
2023-04-18T09:03:23.124Z,11.08
2023-04-18T09:04:23.081Z,11.08
2023-04-18T09:05:22.965Z,11.10
2023-04-18T09:06:22.992Z,11.14
2023-04-18T09:07:23.951Z,11.17
2023-04-18T09:08:22.988Z,11.15
2023-04-18T09:09:23.002Z,11.17
2023-04-18T09:10:22.914Z,11.19
2023-04-18T09:11:26.860Z,11.23
2023-04-18T09:12:23.907Z,11.26
2023-04-18T09:13:24.558Z,11.30
2023-04-18T09:14:22.927Z,11.35
2023-04-18T09:15:22.887Z,11.40
2023-04-18T09:16:22.981Z,11.47
2023-04-18T09:17:22.895Z,11.50
2023-04-18T09:18:23.791Z,11.57
2023-04-18T09:19:22.835Z,11.62
2023-04-18T09:20:22.786Z,11.66
2023-04-18T09:21:22.789Z,11.72
2023-04-18T09:22:22.871Z,11.81
2023-04-18T09:23:22.760Z,11.91
2023-04-18T09:24:23.948Z,12.02
2023-04-18T09:25:22.720Z,12.09
2023-04-18T09:26:22.784Z,12.15
2023-04-18T09:27:22.731Z,12.20
2023-04-18T09:28:22.719Z,12.17
2023-04-18T09:29:23.633Z,12.18
2023-04-18T09:30:22.693Z,12.13
2023-04-18T09:31:22.739Z,12.21
2023-04-18T09:32:22.696Z,12.29
2023-04-18T09:33:22.666Z,12.39
2023-04-18T09:34:23.733Z,12.50
2023-04-18T09:35:22.609Z,12.62
2023-04-18T09:36:22.643Z,12.73
2023-04-18T09:37:22.604Z,12.86
2023-04-18T09:38:23.469Z,12.95
2023-04-18T09:39:23.472Z,13.01
2023-04-18T09:40:22.515Z,13.13
2023-04-18T09:41:22.548Z,13.19
2023-04-18T09:42:22.517Z,13.27
2023-04-18T09:43:22.528Z,13.37
2023-04-18T09:44:23.425Z,13.42
2023-04-18T09:45:22.486Z,13.47
2023-04-18T09:46:22.549Z,13.54
2023-04-18T09:47:22.453Z,13.57
2023-04-18T09:48:22.458Z,13.65
2023-04-18T09:49:23.338Z,13.68
2023-04-18T09:50:22.409Z,13.71
2023-04-18T09:51:22.416Z,13.75
2023-04-18T09:52:22.386Z,13.78
2023-04-18T09:53:22.368Z,13.86
2023-04-18T09:54:23.335Z,13.87
2023-04-18T09:55:22.356Z,13.96
2023-04-18T09:56:22.320Z,13.97
2023-04-18T09:57:22.344Z,14.04
2023-04-18T09:58:22.299Z,14.04
2023-04-18T09:59:23.242Z,14.04
2023-04-18T10:00:22.276Z,14.05
2023-04-18T10:01:22.302Z,14.03
2023-04-18T10:02:22.400Z,14.07
2023-04-18T10:03:22.407Z,14.07
2023-04-18T10:04:22.303Z,14.10
2023-04-18T10:05:23.230Z,14.08
2023-04-18T10:06:22.193Z,14.11
2023-04-18T10:07:22.201Z,14.14
2023-04-18T10:08:22.209Z,14.08
2023-04-18T10:09:22.187Z,14.10
2023-04-18T10:10:22.143Z,14.10
2023-04-18T10:11:23.090Z,14.03
2023-04-18T10:12:22.145Z,13.97
2023-04-18T10:13:22.111Z,13.90
2023-04-18T10:14:22.124Z,13.79
2023-04-18T10:15:22.107Z,13.81
2023-04-18T10:16:22.113Z,13.92
2023-04-18T10:17:23.029Z,13.97
2023-04-18T10:18:22.083Z,14.03
2023-04-18T10:19:22.058Z,14.04
2023-04-18T10:20:22.046Z,14.03
2023-04-18T10:21:22.042Z,13.99
2023-04-18T10:22:23.040Z,14.04
2023-04-18T10:23:21.983Z,14.10
2023-04-18T10:24:21.973Z,14.17
2023-04-18T10:25:21.964Z,14.17
2023-04-18T10:26:21.953Z,14.15
2023-04-18T10:27:21.963Z,14.20
2023-04-18T10:28:22.866Z,14.22
2023-04-18T10:29:21.927Z,14.23
2023-04-18T10:30:21.933Z,14.23
2023-04-18T10:31:21.931Z,14.25
2023-04-18T10:32:21.870Z,14.28
2023-04-18T10:33:30.380Z,14.28
2023-04-18T10:34:24.295Z,14.26
2023-04-18T10:35:21.848Z,14.26
2023-04-18T10:36:21.824Z,14.29
2023-04-18T10:37:21.823Z,14.32
2023-04-18T10:38:21.789Z,14.35
2023-04-18T10:39:22.739Z,14.40
2023-04-18T10:40:21.801Z,14.47
2023-04-18T10:41:21.751Z,14.55
2023-04-18T10:42:21.763Z,14.63
2023-04-18T10:43:21.744Z,14.66
2023-04-18T10:44:23.058Z,14.63
2023-04-18T10:45:21.712Z,14.72
2023-04-18T10:46:31.685Z,14.84
2023-04-18T10:47:23.284Z,14.89
2023-04-18T10:48:21.687Z,14.96
2023-04-18T10:49:22.886Z,14.99
2023-04-18T10:50:22.582Z,14.99
2023-04-18T10:51:21.625Z,14.96
2023-04-18T10:52:21.619Z,14.97
2023-04-18T10:53:21.630Z,15.00
2023-04-18T10:54:21.646Z,15.00
2023-04-18T10:55:21.578Z,14.99
2023-04-18T10:56:22.589Z,14.97
2023-04-18T10:57:21.578Z,14.91
2023-04-18T10:58:21.548Z,14.85
2023-04-18T10:59:21.525Z,14.79
2023-04-18T11:00:21.782Z,14.69
2023-04-18T11:01:21.564Z,14.62
2023-04-18T11:02:22.513Z,14.59
2023-04-18T11:03:21.567Z,14.54
2023-04-18T11:04:21.520Z,14.59
2023-04-18T11:05:21.455Z,14.51
2023-04-18T11:06:21.442Z,14.48
2023-04-18T11:07:22.358Z,14.47
2023-04-18T11:08:21.417Z,14.48
2023-04-18T11:09:21.408Z,14.48
2023-04-18T11:10:21.425Z,14.53
2023-04-18T11:11:21.415Z,14.58
2023-04-18T11:12:21.373Z,14.65
2023-04-18T11:13:22.297Z,14.68
2023-04-18T11:14:21.327Z,14.69
2023-04-18T11:15:21.443Z,14.70
2023-04-18T11:16:21.407Z,14.79
2023-04-18T11:17:21.288Z,14.85
2023-04-18T11:18:21.283Z,14.88
2023-04-18T11:19:22.208Z,14.91
2023-04-18T11:20:21.273Z,14.94
2023-04-18T11:21:21.242Z,14.97
2023-04-18T11:22:21.230Z,14.99
2023-04-18T11:23:21.259Z,15.02
2023-04-18T11:24:21.224Z,15.06
2023-04-18T11:25:27.450Z,15.10
2023-04-18T11:26:21.210Z,15.17
2023-04-18T11:27:21.160Z,15.21
2023-04-18T11:28:21.307Z,15.24
2023-04-18T11:29:21.164Z,15.27
2023-04-18T11:30:21.135Z,15.28
2023-04-18T11:31:27.414Z,15.22
2023-04-18T11:32:21.235Z,15.24
2023-04-18T11:33:21.171Z,15.25
2023-04-18T11:34:21.077Z,15.27
2023-04-18T11:35:21.056Z,15.28
2023-04-18T11:36:21.073Z,15.21
2023-04-18T11:37:22.000Z,15.19
2023-04-18T11:38:22.248Z,15.21
2023-04-18T11:39:21.042Z,15.25
2023-04-18T11:40:21.025Z,15.29
2023-04-18T11:41:20.995Z,15.33
2023-04-18T11:42:21.904Z,15.39
2023-04-18T11:43:20.983Z,15.43
2023-04-18T11:44:20.960Z,15.40
2023-04-18T11:45:20.968Z,15.36
2023-04-18T11:46:20.955Z,15.33
2023-04-18T11:47:21.866Z,15.29
2023-04-18T11:48:20.888Z,15.31
2023-04-18T11:49:20.919Z,15.33
2023-04-18T11:50:20.907Z,15.33
2023-04-18T11:51:20.865Z,15.31
2023-04-18T11:52:21.771Z,15.27
2023-04-18T11:53:20.865Z,15.27
2023-04-18T11:54:20.853Z,15.17
2023-04-18T11:55:20.790Z,15.15
2023-04-18T11:56:20.799Z,15.15
2023-04-18T11:57:20.820Z,15.17
2023-04-18T11:58:21.698Z,15.21
2023-04-18T11:59:20.769Z,15.28
2023-04-18T12:00:20.753Z,15.29
2023-04-18T12:01:20.772Z,15.31
2023-04-18T12:02:20.920Z,15.33
2023-04-18T12:03:20.854Z,15.37
2023-04-18T12:04:22.030Z,15.40
2023-04-18T12:05:21.077Z,15.49
2023-04-18T12:06:20.701Z,15.52
2023-04-18T12:07:20.674Z,15.52
2023-04-18T12:08:20.738Z,15.55
2023-04-18T12:09:21.612Z,15.57
2023-04-18T12:10:20.604Z,15.52
2023-04-18T12:11:20.608Z,15.44
2023-04-18T12:12:20.595Z,15.46
2023-04-18T12:13:20.573Z,15.49
2023-04-18T12:14:21.512Z,15.49
2023-04-18T12:15:20.531Z,15.51
2023-04-18T12:16:20.585Z,15.55
2023-04-18T12:17:20.572Z,15.57
2023-04-18T12:18:20.533Z,15.58
2023-04-18T12:19:20.583Z,15.61
2023-04-18T12:20:21.437Z,15.67
2023-04-18T12:21:20.495Z,15.65
2023-04-18T12:22:20.447Z,15.67
2023-04-18T12:23:20.471Z,15.72
2023-04-18T12:24:20.422Z,15.70
2023-04-18T12:25:20.393Z,15.75
2023-04-18T12:26:21.324Z,15.77
2023-04-18T12:27:20.472Z,15.72
2023-04-18T12:28:21.301Z,15.75
2023-04-18T12:29:20.409Z,15.68
2023-04-18T12:30:20.365Z,15.62
2023-04-18T12:31:20.379Z,15.57
2023-04-18T12:32:21.388Z,15.55
2023-04-18T12:33:20.315Z,15.58
2023-04-18T12:34:20.305Z,15.57
2023-04-18T12:35:20.292Z,15.59
2023-04-18T12:36:20.279Z,15.59
2023-04-18T12:37:21.192Z,15.59
2023-04-18T12:38:20.245Z,15.62
2023-04-18T12:39:20.246Z,15.61
2023-04-18T12:40:20.265Z,15.62
2023-04-18T12:41:20.209Z,15.61
2023-04-18T12:42:20.197Z,15.59
2023-04-18T12:43:21.125Z,15.57
2023-04-18T12:44:20.227Z,15.55
2023-04-18T12:45:20.148Z,15.54
2023-04-18T12:46:20.177Z,15.49
2023-04-18T12:47:20.246Z,15.46
2023-04-18T12:48:20.112Z,15.43
2023-04-18T12:49:21.052Z,15.36
2023-04-18T12:50:20.095Z,15.31
2023-04-18T12:51:20.070Z,15.28
2023-04-18T12:52:20.070Z,15.24
2023-04-18T12:53:20.063Z,15.17
2023-04-18T12:54:20.960Z,15.14
2023-04-18T12:55:20.006Z,15.09
2023-04-18T12:56:20.002Z,15.07
2023-04-18T12:57:19.993Z,15.09
2023-04-18T12:58:19.972Z,15.09
2023-04-18T12:59:19.985Z,15.10
2023-04-18T13:00:20.917Z,15.09
2023-04-18T13:01:37.730Z,15.11
2023-04-18T13:02:20.081Z,15.15
2023-04-18T13:03:20.118Z,15.18
2023-04-18T13:04:20.047Z,15.19
2023-04-18T13:05:20.835Z,15.21
2023-04-18T13:06:19.900Z,15.21
2023-04-18T13:07:19.888Z,15.21
2023-04-18T13:08:19.895Z,15.18
2023-04-18T13:09:19.888Z,15.19